createdAt,value
2023-01-25T00:00:27.157Z,87.95
2023-01-25T00:01:28.749Z,87.84
2023-01-25T00:02:30.403Z,87.65
2023-01-25T00:03:32.243Z,87.50
2023-01-25T00:04:33.925Z,87.57
2023-01-25T00:05:35.727Z,87.40
2023-01-25T00:06:37.381Z,87.15
2023-01-25T00:07:39.036Z,87.95
2023-01-25T00:08:40.645Z,87.90
2023-01-25T00:09:42.242Z,88.07
2023-01-25T00:10:43.906Z,88.12
2023-01-25T00:11:45.564Z,87.97
2023-01-25T00:12:47.336Z,88.00
2023-01-25T00:13:49.026Z,87.98
2023-01-25T00:14:50.719Z,87.81
2023-01-25T00:15:52.317Z,87.69
2023-01-25T00:16:54.029Z,87.95
2023-01-25T00:17:55.680Z,88.49
2023-01-25T00:18:57.321Z,88.58
2023-01-25T00:19:58.990Z,88.85
2023-01-25T00:21:00.630Z,88.87
2023-01-25T00:22:02.221Z,88.96
2023-01-25T00:23:03.886Z,89.24
2023-01-25T00:24:05.869Z,89.46
2023-01-25T00:25:08.077Z,89.39
2023-01-25T00:26:09.852Z,89.49
2023-01-25T00:27:11.459Z,89.33
2023-01-25T00:28:13.096Z,89.25
2023-01-25T00:29:14.894Z,89.19
2023-01-25T00:30:16.785Z,89.06
2023-01-25T00:31:38.703Z,88.86
2023-01-25T00:33:03.352Z,88.65
2023-01-25T00:34:26.963Z,88.40
2023-01-25T00:35:32.525Z,88.43
2023-01-25T00:36:37.101Z,88.78
2023-01-25T00:37:46.956Z,88.85
2023-01-25T00:38:48.548Z,89.03
2023-01-25T00:39:50.313Z,88.93
2023-01-25T00:40:51.945Z,88.91
2023-01-25T00:41:53.797Z,88.95
2023-01-25T00:42:55.843Z,89.04
2023-01-25T00:43:57.619Z,89.01
2023-01-25T00:44:59.338Z,89.25
2023-01-25T00:46:01.555Z,89.07
2023-01-25T00:47:03.234Z,89.23
2023-01-25T00:48:05.178Z,88.92
2023-01-25T00:49:07.179Z,89.04
2023-01-25T00:50:09.346Z,89.10
2023-01-25T00:51:11.311Z,88.91
2023-01-25T00:52:13.045Z,88.99
2023-01-25T00:53:14.656Z,88.98
2023-01-25T00:54:16.784Z,88.83
2023-01-25T00:55:18.406Z,88.97
2023-01-25T00:56:20.027Z,88.92
2023-01-25T00:57:21.616Z,88.82
2023-01-25T00:58:23.231Z,88.64
2023-01-25T00:59:24.927Z,88.75
2023-01-25T01:00:26.525Z,88.67
2023-01-25T01:01:28.199Z,88.60
2023-01-25T01:02:30.766Z,88.61
2023-01-25T01:03:32.660Z,88.60
2023-01-25T01:04:34.298Z,88.61
2023-01-25T01:05:36.616Z,89.06
2023-01-25T01:06:38.731Z,89.20
2023-01-25T01:07:40.408Z,89.10
2023-01-25T01:08:42.425Z,89.09
2023-01-25T01:09:44.129Z,88.96
2023-01-25T01:10:45.750Z,88.79
2023-01-25T01:11:47.382Z,89.03
2023-01-25T01:12:49.255Z,89.14
2023-01-25T01:13:50.865Z,89.27
2023-01-25T01:14:52.499Z,89.25
2023-01-25T01:15:54.127Z,89.18
2023-01-25T01:16:57.874Z,89.23
2023-01-25T01:17:59.778Z,89.14
2023-01-25T01:19:01.390Z,88.84
2023-01-25T01:20:03.068Z,89.06
2023-01-25T01:21:05.118Z,89.48
2023-01-25T01:22:06.804Z,89.61
2023-01-25T01:23:08.459Z,89.49
2023-01-25T01:24:10.966Z,89.40
2023-01-25T01:25:13.452Z,89.28
2023-01-25T01:26:16.195Z,89.26
2023-01-25T01:27:17.847Z,89.10
2023-01-25T01:28:19.434Z,89.46
2023-01-25T01:29:21.037Z,89.52
2023-01-25T01:30:22.637Z,89.57
2023-01-25T01:31:24.387Z,89.44
2023-01-25T01:32:26.395Z,89.21
2023-01-25T01:33:28.181Z,89.11
2023-01-25T01:34:29.854Z,89.04
2023-01-25T01:35:31.483Z,89.23
2023-01-25T01:36:33.110Z,88.94
2023-01-25T01:37:34.803Z,90.81
2023-01-25T01:38:36.481Z,90.55
2023-01-25T01:39:38.112Z,90.96
2023-01-25T01:40:45.106Z,91.44
2023-01-25T01:41:46.716Z,91.38
2023-01-25T01:42:59.027Z,91.45
2023-01-25T01:44:00.659Z,91.85
2023-01-25T01:45:02.335Z,91.47
2023-01-25T01:46:28.397Z,91.31
2023-01-25T01:47:34.629Z,91.91
2023-01-25T01:48:45.155Z,91.96
2023-01-25T01:49:51.402Z,91.99
2023-01-25T01:50:53.956Z,92.23
2023-01-25T01:52:01.091Z,92.45
2023-01-25T01:53:02.666Z,92.59
2023-01-25T01:54:25.682Z,92.18
2023-01-25T01:55:27.283Z,91.93
2023-01-25T01:56:39.222Z,91.99
2023-01-25T01:57:42.673Z,91.86
2023-01-25T01:58:44.264Z,91.19
2023-01-25T01:59:58.242Z,91.20
2023-01-25T02:00:59.900Z,91.60
2023-01-25T02:02:01.501Z,91.91
2023-01-25T02:03:03.245Z,92.11
2023-01-25T02:04:05.515Z,91.67
2023-01-25T02:05:08.393Z,91.62
2023-01-25T02:06:15.681Z,92.07
2023-01-25T02:07:21.282Z,92.28
2023-01-25T02:08:22.959Z,92.28
2023-01-25T02:09:25.547Z,92.39
2023-01-25T02:10:27.256Z,92.26
2023-01-25T02:11:28.904Z,92.53
2023-01-25T02:12:31.337Z,92.41
2023-01-25T02:13:32.977Z,92.34
2023-01-25T02:14:34.603Z,92.13
2023-01-25T02:15:39.163Z,92.07
2023-01-25T02:16:41.414Z,91.73
2023-01-25T02:17:43.291Z,91.87
2023-01-25T02:18:44.920Z,91.81
2023-01-25T02:20:22.799Z,91.58
2023-01-25T02:21:24.943Z,91.88
2023-01-25T02:22:35.406Z,91.76
2023-01-25T02:24:13.167Z,91.93
2023-01-25T02:25:15.085Z,91.80
2023-01-25T02:26:17.165Z,91.87
2023-01-25T02:27:18.807Z,91.90
2023-01-25T02:28:50.583Z,91.63
2023-01-25T02:29:52.194Z,91.50
2023-01-25T02:30:53.844Z,91.39
2023-01-25T02:32:05.730Z,91.41
2023-01-25T02:33:07.397Z,91.23
2023-01-25T02:34:09.336Z,91.54
2023-01-25T02:35:25.237Z,91.02
2023-01-25T02:36:34.298Z,91.08
2023-01-25T02:37:35.977Z,91.18
2023-01-25T02:38:39.663Z,91.37
2023-01-25T02:39:42.182Z,91.06
2023-01-25T02:40:54.135Z,91.25
2023-01-25T02:41:55.819Z,92.46
2023-01-25T02:42:57.858Z,92.88
2023-01-25T02:44:00.786Z,92.64
2023-01-25T02:45:02.822Z,92.35
2023-01-25T02:46:12.722Z,91.87
2023-01-25T02:47:14.338Z,92.04
2023-01-25T02:48:15.933Z,91.97
2023-01-25T02:49:18.107Z,91.67
2023-01-25T02:50:19.679Z,91.49
2023-01-25T02:51:22.771Z,91.41
2023-01-25T02:52:24.424Z,91.16
2023-01-25T02:53:27.546Z,91.23
2023-01-25T02:54:29.158Z,91.18
2023-01-25T02:55:30.764Z,91.20
2023-01-25T02:56:32.458Z,91.26
2023-01-25T02:57:34.114Z,91.23
2023-01-25T02:58:35.764Z,90.98
2023-01-25T02:59:37.377Z,91.04
2023-01-25T03:00:38.975Z,90.60
2023-01-25T03:01:41.696Z,90.69
2023-01-25T03:02:43.479Z,91.40
2023-01-25T03:03:45.205Z,91.38
2023-01-25T03:04:46.808Z,91.42
2023-01-25T03:05:48.395Z,91.84
2023-01-25T03:06:50.470Z,92.08
2023-01-25T03:07:52.139Z,92.39
2023-01-25T03:08:53.818Z,92.46
2023-01-25T03:09:55.424Z,92.68
2023-01-25T03:10:58.291Z,92.34
2023-01-25T03:11:59.921Z,92.50
2023-01-25T03:13:01.744Z,92.34
2023-01-25T03:14:03.371Z,92.55
2023-01-25T03:15:05.866Z,92.52
2023-01-25T03:16:09.385Z,92.32
2023-01-25T03:17:11.201Z,92.21
2023-01-25T03:18:12.886Z,92.26
2023-01-25T03:19:14.573Z,91.75
2023-01-25T03:20:16.456Z,91.33
2023-01-25T03:21:19.272Z,91.24
2023-01-25T03:22:20.869Z,91.40
2023-01-25T03:23:22.778Z,91.32
2023-01-25T03:24:24.390Z,91.68
2023-01-25T03:25:26.059Z,91.74
2023-01-25T03:26:28.077Z,93.24
2023-01-25T03:27:30.750Z,92.69
2023-01-25T03:28:32.510Z,92.53
2023-01-25T03:29:34.117Z,92.21
2023-01-25T03:30:35.754Z,92.75
2023-01-25T03:31:37.444Z,92.71
2023-01-25T03:32:39.166Z,92.53
2023-01-25T03:33:40.888Z,92.94
2023-01-25T03:34:42.577Z,92.94
2023-01-25T03:35:44.182Z,92.82
2023-01-25T03:36:45.823Z,92.43
2023-01-25T03:37:47.440Z,92.07
2023-01-25T03:38:49.114Z,92.21
2023-01-25T03:39:50.707Z,91.88
2023-01-25T03:40:52.437Z,91.99
2023-01-25T03:41:54.043Z,91.89
2023-01-25T03:42:55.629Z,91.75
2023-01-25T03:43:57.296Z,92.00
2023-01-25T03:44:58.939Z,92.61
2023-01-25T03:46:01.017Z,92.36
2023-01-25T03:47:02.973Z,92.02
2023-01-25T03:48:04.766Z,92.33
2023-01-25T03:49:06.707Z,92.22
2023-01-25T03:50:09.040Z,92.11
2023-01-25T03:51:10.621Z,91.86
2023-01-25T03:52:12.273Z,91.91
2023-01-25T03:53:27.161Z,93.76
2023-01-25T03:54:28.808Z,93.45
2023-01-25T03:55:30.430Z,93.30
2023-01-25T03:56:32.043Z,92.75
2023-01-25T03:57:33.635Z,92.89
2023-01-25T03:58:36.032Z,92.75
2023-01-25T03:59:37.690Z,92.91
2023-01-25T04:00:39.322Z,92.72
2023-01-25T04:01:41.008Z,92.72
2023-01-25T04:02:42.672Z,92.26
2023-01-25T04:03:44.485Z,91.89
2023-01-25T04:04:46.083Z,92.15
2023-01-25T04:05:47.789Z,91.80
2023-01-25T04:06:49.436Z,91.88
2023-01-25T04:07:51.040Z,91.77
2023-01-25T04:08:52.748Z,91.83
2023-01-25T04:09:54.459Z,91.45
2023-01-25T04:11:17.045Z,91.65
2023-01-25T04:12:18.648Z,91.23
2023-01-25T04:13:24.349Z,90.94
2023-01-25T04:14:43.370Z,91.81
2023-01-25T04:15:45.794Z,91.34
2023-01-25T04:16:47.559Z,91.45
2023-01-25T04:17:49.159Z,91.84
2023-01-25T04:18:50.742Z,91.75
2023-01-25T04:19:52.376Z,91.49
2023-01-25T04:20:54.601Z,92.08
2023-01-25T04:21:56.258Z,91.97
2023-01-25T04:22:57.989Z,91.90
2023-01-25T04:23:59.677Z,91.96
2023-01-25T04:25:01.305Z,92.33
2023-01-25T04:26:08.351Z,92.11
2023-01-25T04:27:10.208Z,91.65
2023-01-25T04:28:11.819Z,91.69
2023-01-25T04:29:13.655Z,91.84
2023-01-25T04:30:15.497Z,91.98
2023-01-25T04:31:17.183Z,92.01
2023-01-25T04:32:19.105Z,91.84
2023-01-25T04:33:21.021Z,91.73
2023-01-25T04:34:22.663Z,91.58
2023-01-25T04:35:24.282Z,91.71
2023-01-25T04:36:25.939Z,91.75
2023-01-25T04:37:27.628Z,91.40
2023-01-25T04:38:29.302Z,91.15
2023-01-25T04:39:30.904Z,91.28
2023-01-25T04:40:32.558Z,91.36
2023-01-25T04:41:34.184Z,91.33
2023-01-25T04:42:35.979Z,91.35
2023-01-25T04:43:37.923Z,91.55
2023-01-25T04:44:39.542Z,92.55
2023-01-25T04:45:41.237Z,92.17
2023-01-25T04:46:42.915Z,92.12
2023-01-25T04:47:44.609Z,92.01
2023-01-25T04:48:46.240Z,91.69
2023-01-25T04:49:47.838Z,91.25
2023-01-25T04:50:49.495Z,91.23
2023-01-25T04:51:51.116Z,91.51
2023-01-25T04:52:52.847Z,91.34
2023-01-25T04:53:54.427Z,91.59
2023-01-25T04:54:56.061Z,91.32
2023-01-25T04:55:57.703Z,91.13
2023-01-25T04:56:59.341Z,90.95
2023-01-25T04:58:01.516Z,90.99
2023-01-25T04:59:03.374Z,91.14
2023-01-25T05:00:05.521Z,91.39
2023-01-25T05:01:07.539Z,91.67
2023-01-25T05:02:09.239Z,91.58
2023-01-25T05:03:10.950Z,91.42
2023-01-25T05:04:12.554Z,91.34
2023-01-25T05:05:14.845Z,91.47
2023-01-25T05:06:16.491Z,91.40
2023-01-25T05:07:18.149Z,91.34
2023-01-25T05:08:19.905Z,91.45
2023-01-25T05:09:21.603Z,91.37
2023-01-25T05:10:23.260Z,91.26
2023-01-25T05:11:24.882Z,91.11
2023-01-25T05:12:26.494Z,91.30
2023-01-25T05:13:28.270Z,91.04
2023-01-25T05:14:29.876Z,90.95
2023-01-25T05:15:31.581Z,91.09
2023-01-25T05:16:33.250Z,90.87
2023-01-25T05:17:34.888Z,90.66
2023-01-25T05:18:47.880Z,90.31
2023-01-25T05:19:50.241Z,91.30
2023-01-25T05:20:56.234Z,91.22
2023-01-25T05:21:58.006Z,91.00
2023-01-25T05:22:59.639Z,90.52
2023-01-25T05:24:01.374Z,90.40
2023-01-25T05:25:04.070Z,90.29
2023-01-25T05:26:24.132Z,90.40
2023-01-25T05:27:25.753Z,90.62
2023-01-25T05:28:27.377Z,90.68
2023-01-25T05:29:35.852Z,90.85
2023-01-25T05:30:37.553Z,90.74
2023-01-25T05:31:39.174Z,90.79
2023-01-25T05:32:40.840Z,90.58
2023-01-25T05:33:42.466Z,90.40
2023-01-25T05:34:44.308Z,90.20
2023-01-25T05:35:45.933Z,89.98
2023-01-25T05:36:47.526Z,89.77
2023-01-25T05:37:49.188Z,89.58
2023-01-25T05:38:50.790Z,89.56
2023-01-25T05:39:52.394Z,89.39
2023-01-25T05:40:57.628Z,89.41
2023-01-25T05:41:59.225Z,89.30
2023-01-25T05:43:00.973Z,89.19
2023-01-25T05:44:02.617Z,89.28
2023-01-25T05:45:04.559Z,89.57
2023-01-25T05:46:06.600Z,89.30
2023-01-25T05:47:12.350Z,89.14
2023-01-25T05:48:13.944Z,89.06
2023-01-25T05:49:15.906Z,89.03
2023-01-25T05:50:17.664Z,88.94
2023-01-25T05:51:19.260Z,88.72
2023-01-25T05:52:20.859Z,88.60
2023-01-25T05:53:28.608Z,88.40
2023-01-25T05:54:30.271Z,88.26
2023-01-25T05:55:31.932Z,88.11
2023-01-25T05:56:33.934Z,88.14
2023-01-25T05:57:35.572Z,88.17
2023-01-25T05:58:38.039Z,88.26
2023-01-25T05:59:39.643Z,88.29
2023-01-25T06:00:41.312Z,88.25
2023-01-25T06:01:43.196Z,88.38
2023-01-25T06:02:44.929Z,88.32
2023-01-25T06:03:47.236Z,88.78
2023-01-25T06:04:48.899Z,88.62
2023-01-25T06:05:58.126Z,88.50
2023-01-25T06:06:59.750Z,88.39
2023-01-25T06:08:01.574Z,88.71
2023-01-25T06:09:03.300Z,88.71
2023-01-25T06:10:05.421Z,88.90
2023-01-25T06:11:11.028Z,88.71
2023-01-25T06:12:12.668Z,88.96
2023-01-25T06:13:14.373Z,88.83
2023-01-25T06:14:16.094Z,88.72
2023-01-25T06:15:17.699Z,88.55
2023-01-25T06:16:20.662Z,88.38
2023-01-25T06:17:22.295Z,88.19
2023-01-25T06:18:27.140Z,88.05
2023-01-25T06:19:28.773Z,87.92
2023-01-25T06:20:30.372Z,87.82
2023-01-25T06:21:32.397Z,87.95
2023-01-25T06:22:33.995Z,87.90
2023-01-25T06:23:35.596Z,87.58
2023-01-25T06:24:37.272Z,87.47
2023-01-25T06:25:38.920Z,87.58
2023-01-25T06:26:40.570Z,87.60
2023-01-25T06:27:42.210Z,87.39
2023-01-25T06:28:43.891Z,87.30
2023-01-25T06:29:45.511Z,87.28
2023-01-25T06:30:47.229Z,87.17
2023-01-25T06:31:48.896Z,86.94
2023-01-25T06:32:50.747Z,86.68
2023-01-25T06:33:52.776Z,86.44
2023-01-25T06:34:54.380Z,86.29
2023-01-25T06:36:00.268Z,86.54
2023-01-25T06:37:01.884Z,86.97
2023-01-25T06:38:03.582Z,86.43
2023-01-25T06:39:05.220Z,86.10
2023-01-25T06:40:07.283Z,86.10
2023-01-25T06:41:11.970Z,86.43
2023-01-25T06:42:13.866Z,86.50
2023-01-25T06:43:15.514Z,86.08
2023-01-25T06:44:17.102Z,86.31
2023-01-25T06:45:18.715Z,85.91
2023-01-25T06:46:20.583Z,86.31
2023-01-25T06:47:22.465Z,86.20
2023-01-25T06:48:24.073Z,86.31
2023-01-25T06:49:25.678Z,86.54
2023-01-25T06:50:27.391Z,86.77
2023-01-25T06:51:29.426Z,86.63
2023-01-25T06:52:31.914Z,86.29
2023-01-25T06:53:35.176Z,86.26
2023-01-25T06:54:36.909Z,86.48
2023-01-25T06:55:38.673Z,86.26
2023-01-25T06:56:40.421Z,86.08
2023-01-25T06:57:42.128Z,86.26
2023-01-25T06:58:43.710Z,86.94
2023-01-25T06:59:45.359Z,86.73
2023-01-25T07:00:46.947Z,86.75
2023-01-25T07:01:48.643Z,86.62
2023-01-25T07:02:50.303Z,86.42
2023-01-25T07:03:53.398Z,86.41
2023-01-25T07:04:55.006Z,86.53
2023-01-25T07:06:03.996Z,86.43
2023-01-25T07:07:08.239Z,86.27
2023-01-25T07:08:09.898Z,86.60
2023-01-25T07:09:13.023Z,86.76
2023-01-25T07:10:14.851Z,86.40
2023-01-25T07:11:18.978Z,86.45
2023-01-25T07:12:20.747Z,86.23
2023-01-25T07:13:22.650Z,86.60
2023-01-25T07:14:24.467Z,86.54
2023-01-25T07:15:26.198Z,86.95
2023-01-25T07:16:27.862Z,87.22
2023-01-25T07:17:29.488Z,87.07
2023-01-25T07:18:31.611Z,87.10
2023-01-25T07:19:33.337Z,87.08
2023-01-25T07:20:35.000Z,87.28
2023-01-25T07:21:36.713Z,87.42
2023-01-25T07:22:38.343Z,87.43
2023-01-25T07:23:40.032Z,87.34
2023-01-25T07:24:41.707Z,87.81
2023-01-25T07:25:47.208Z,87.46
2023-01-25T07:26:49.934Z,87.14
2023-01-25T07:27:51.562Z,87.36
2023-01-25T07:28:53.316Z,87.32
2023-01-25T07:29:55.050Z,87.33
2023-01-25T07:30:57.239Z,87.50
2023-01-25T07:31:58.874Z,87.39
2023-01-25T07:33:00.523Z,87.23
2023-01-25T07:34:02.120Z,87.16
2023-01-25T07:35:03.894Z,87.10
2023-01-25T07:36:07.428Z,87.09
2023-01-25T07:37:10.234Z,87.02
2023-01-25T07:38:13.871Z,87.45
2023-01-25T07:39:17.279Z,88.13
2023-01-25T07:40:18.917Z,87.91
2023-01-25T07:41:21.103Z,87.79
2023-01-25T07:42:22.746Z,87.49
2023-01-25T07:43:24.742Z,87.44
2023-01-25T07:44:26.350Z,87.40
2023-01-25T07:45:30.538Z,87.72
2023-01-25T07:46:32.339Z,87.87
2023-01-25T07:47:34.733Z,87.75
2023-01-25T07:48:37.636Z,87.51
2023-01-25T07:49:39.316Z,87.20
2023-01-25T07:50:41.581Z,86.96
2023-01-25T07:51:43.262Z,86.97
2023-01-25T07:52:44.895Z,87.48
2023-01-25T07:53:46.566Z,87.40
2023-01-25T07:54:50.010Z,87.28
2023-01-25T07:55:51.797Z,87.50
2023-01-25T07:56:53.403Z,88.18
2023-01-25T07:57:55.826Z,88.01
2023-01-25T07:58:58.434Z,87.78
2023-01-25T08:00:00.127Z,87.68
2023-01-25T08:01:12.132Z,87.57
2023-01-25T08:02:13.804Z,87.64
2023-01-25T08:03:15.621Z,87.96
2023-01-25T08:04:17.360Z,88.03
2023-01-25T08:05:19.210Z,87.90
2023-01-25T08:06:30.868Z,88.07
2023-01-25T08:07:32.538Z,88.18
2023-01-25T08:08:35.357Z,88.00
2023-01-25T08:09:36.935Z,88.04
2023-01-25T08:10:38.913Z,87.77
2023-01-25T08:11:41.630Z,87.77
2023-01-25T08:12:46.581Z,87.67
2023-01-25T08:13:50.024Z,87.39
2023-01-25T08:14:51.701Z,87.40
2023-01-25T08:15:54.880Z,87.53
2023-01-25T08:16:56.510Z,87.55
2023-01-25T08:18:01.160Z,87.63
2023-01-25T08:19:03.464Z,87.49
2023-01-25T08:20:06.201Z,87.63
2023-01-25T08:21:08.061Z,87.31
2023-01-25T08:22:09.784Z,87.29
2023-01-25T08:23:11.392Z,86.99
2023-01-25T08:24:13.553Z,86.95
2023-01-25T08:25:15.721Z,86.66
2023-01-25T08:26:18.141Z,86.75
2023-01-25T08:27:19.917Z,86.68
2023-01-25T08:28:22.537Z,86.58
2023-01-25T08:29:24.844Z,86.52
2023-01-25T08:30:26.443Z,86.65
2023-01-25T08:31:30.309Z,86.68
2023-01-25T08:32:32.013Z,87.22
2023-01-25T08:33:33.677Z,87.50
2023-01-25T08:34:35.361Z,87.32
2023-01-25T08:35:37.349Z,87.14
2023-01-25T08:36:38.946Z,86.95
2023-01-25T08:37:40.641Z,86.86
2023-01-25T08:38:42.459Z,86.82
2023-01-25T08:39:44.094Z,86.75
2023-01-25T08:40:45.683Z,86.89
2023-01-25T08:41:47.353Z,86.81
2023-01-25T08:42:49.081Z,86.94
2023-01-25T08:43:52.642Z,87.03
2023-01-25T08:44:54.305Z,86.81
2023-01-25T08:45:57.186Z,86.74
2023-01-25T08:46:58.823Z,86.72
2023-01-25T08:48:00.479Z,86.50
2023-01-25T08:49:02.266Z,86.45
2023-01-25T08:50:04.190Z,86.21
2023-01-25T08:51:08.141Z,86.10
2023-01-25T08:52:09.907Z,86.30
2023-01-25T08:53:11.624Z,86.53
2023-01-25T08:54:13.279Z,86.74
2023-01-25T08:55:14.981Z,86.40
2023-01-25T08:56:16.775Z,86.38
2023-01-25T08:57:18.394Z,86.42
2023-01-25T08:58:22.317Z,86.14
2023-01-25T08:59:23.943Z,86.10
2023-01-25T09:00:25.535Z,86.21
2023-01-25T09:01:27.226Z,86.75
2023-01-25T09:02:28.882Z,86.48
2023-01-25T09:03:30.725Z,86.60
2023-01-25T09:04:32.384Z,86.32
2023-01-25T09:05:35.039Z,86.77
2023-01-25T09:06:36.846Z,86.14
2023-01-25T09:07:39.900Z,86.05
2023-01-25T09:08:41.578Z,85.92
2023-01-25T09:09:43.185Z,86.44
2023-01-25T09:10:44.839Z,86.02
2023-01-25T09:11:46.463Z,85.89
2023-01-25T09:12:48.124Z,86.42
2023-01-25T09:13:50.074Z,85.84
2023-01-25T09:14:51.750Z,86.04
2023-01-25T09:15:53.369Z,85.83
2023-01-25T09:16:54.980Z,86.31
2023-01-25T09:17:56.891Z,85.74
2023-01-25T09:19:00.747Z,85.57
2023-01-25T09:20:02.394Z,85.93
2023-01-25T09:21:10.900Z,86.00
2023-01-25T09:22:12.533Z,86.19
2023-01-25T09:23:14.146Z,86.45
2023-01-25T09:24:15.946Z,86.66
2023-01-25T09:25:17.598Z,86.33
2023-01-25T09:26:19.254Z,86.57
2023-01-25T09:27:20.989Z,86.33
2023-01-25T09:28:22.580Z,86.33
2023-01-25T09:29:24.272Z,86.62
2023-01-25T09:30:37.318Z,86.66
2023-01-25T09:31:44.160Z,86.49
2023-01-25T09:32:46.018Z,86.11
2023-01-25T09:33:48.013Z,85.63
2023-01-25T09:34:49.625Z,85.20
2023-01-25T09:35:51.230Z,85.30
2023-01-25T09:36:53.003Z,85.73
2023-01-25T09:37:54.618Z,85.67
2023-01-25T09:38:56.978Z,86.11
2023-01-25T09:39:58.645Z,86.17
2023-01-25T09:41:12.741Z,86.21
2023-01-25T09:42:36.082Z,86.44
2023-01-25T09:43:56.888Z,86.00
2023-01-25T09:45:03.326Z,86.28
2023-01-25T09:46:13.099Z,86.40
2023-01-25T09:47:23.469Z,86.88
2023-01-25T09:48:36.378Z,86.70
2023-01-25T09:49:40.536Z,87.37
2023-01-25T09:50:48.140Z,86.59
2023-01-25T09:51:56.916Z,86.39
2023-01-25T09:53:17.023Z,86.08
2023-01-25T09:54:18.731Z,86.02
2023-01-25T09:55:22.728Z,85.95
2023-01-25T09:56:30.588Z,86.16
2023-01-25T09:57:34.773Z,85.78
2023-01-25T09:58:43.218Z,85.85
2023-01-25T09:59:45.941Z,86.19
2023-01-25T10:00:48.220Z,86.20
2023-01-25T10:02:17.519Z,86.29
2023-01-25T10:03:48.455Z,85.83
2023-01-25T10:04:51.937Z,86.50
2023-01-25T10:05:54.597Z,85.95
2023-01-25T10:07:04.871Z,85.64
2023-01-25T10:08:30.947Z,85.65
2023-01-25T10:09:52.960Z,86.03
2023-01-25T10:11:26.890Z,86.86
2023-01-25T10:12:28.828Z,86.02
2023-01-25T10:13:32.053Z,86.02
2023-01-25T10:14:35.748Z,86.05
2023-01-25T10:15:40.151Z,85.92
2023-01-25T10:16:51.923Z,86.07
2023-01-25T10:18:03.847Z,85.43
2023-01-25T10:19:20.887Z,85.33
2023-01-25T10:20:42.950Z,85.69
2023-01-25T10:21:47.220Z,85.83
2023-01-25T10:22:57.888Z,85.99
2023-01-25T10:24:08.334Z,86.26
2023-01-25T10:25:40.449Z,86.07
2023-01-25T10:26:43.167Z,85.95
2023-01-25T10:27:44.773Z,85.83
2023-01-25T10:28:56.550Z,85.39
2023-01-25T10:29:58.280Z,85.16
2023-01-25T10:31:20.073Z,84.97
2023-01-25T10:32:32.041Z,84.82
2023-01-25T10:33:37.542Z,84.74
2023-01-25T10:34:55.435Z,84.73
2023-01-25T10:36:00.127Z,84.85
2023-01-25T10:37:03.287Z,85.02
2023-01-25T10:38:31.744Z,84.86
2023-01-25T10:39:33.453Z,85.06
2023-01-25T10:40:56.209Z,84.26
2023-01-25T10:42:03.276Z,84.07
2023-01-25T10:43:07.984Z,84.86
2023-01-25T10:44:24.931Z,85.21
2023-01-25T10:45:26.642Z,85.12
2023-01-25T10:46:28.352Z,84.93
2023-01-25T10:47:32.022Z,84.10
2023-01-25T10:48:35.070Z,83.75
2023-01-25T10:49:46.513Z,83.60
2023-01-25T10:50:52.798Z,83.54
2023-01-25T10:51:54.577Z,83.65
2023-01-25T10:52:59.092Z,83.76
2023-01-25T10:54:05.076Z,84.07
2023-01-25T10:55:17.243Z,84.12
2023-01-25T10:56:24.550Z,84.36
2023-01-25T10:57:26.227Z,84.04
2023-01-25T10:58:35.213Z,83.67
2023-01-25T10:59:37.281Z,83.59
2023-01-25T11:00:40.113Z,83.28
2023-01-25T11:01:41.832Z,83.48
2023-01-25T11:02:47.277Z,83.46
2023-01-25T11:03:48.945Z,83.55
2023-01-25T11:04:50.619Z,84.03
2023-01-25T11:05:55.839Z,83.84
2023-01-25T11:06:58.708Z,82.84
2023-01-25T11:08:16.085Z,82.85
2023-01-25T11:09:20.935Z,83.50
2023-01-25T11:10:34.093Z,83.54
2023-01-25T11:11:36.711Z,83.62
2023-01-25T11:12:38.385Z,82.94
2023-01-25T11:13:41.153Z,83.13
2023-01-25T11:14:42.852Z,83.14
2023-01-25T11:15:52.455Z,83.09
2023-01-25T11:16:54.743Z,83.30
2023-01-25T11:18:13.680Z,82.68
2023-01-25T11:19:27.839Z,82.50
2023-01-25T11:20:29.470Z,82.81
2023-01-25T11:21:33.371Z,82.76
2023-01-25T11:22:35.061Z,82.77
2023-01-25T11:23:36.761Z,82.91
2023-01-25T11:24:38.541Z,83.04
2023-01-25T11:25:40.154Z,82.46
2023-01-25T11:26:41.828Z,82.26
2023-01-25T11:27:43.420Z,82.56
2023-01-25T11:28:46.001Z,82.66
2023-01-25T11:30:06.267Z,83.02
2023-01-25T11:31:12.807Z,82.83
2023-01-25T11:32:17.193Z,81.78
2023-01-25T11:33:20.326Z,81.58
2023-01-25T11:34:25.064Z,81.29
2023-01-25T11:35:29.633Z,82.04
2023-01-25T11:36:52.468Z,82.17
2023-01-25T11:38:14.261Z,82.89
2023-01-25T11:39:31.373Z,82.92
2023-01-25T11:40:57.635Z,82.76
2023-01-25T11:42:11.753Z,83.17
2023-01-25T11:43:38.424Z,82.56
2023-01-25T11:44:58.860Z,82.20
2023-01-25T11:46:18.508Z,82.69
2023-01-25T11:47:41.303Z,82.82
2023-01-25T11:49:26.377Z,82.90
2023-01-25T11:50:50.327Z,82.37
2023-01-25T11:52:04.051Z,82.93
2023-01-25T11:53:34.216Z,82.73
2023-01-25T11:54:54.247Z,82.47
2023-01-25T11:56:01.908Z,83.13
2023-01-25T11:57:18.592Z,82.76
2023-01-25T11:58:58.936Z,82.92
2023-01-25T12:00:48.356Z,83.57
2023-01-25T12:02:19.046Z,83.28
2023-01-25T12:03:52.318Z,83.01
2023-01-25T12:05:21.858Z,83.60
2023-01-25T12:06:59.195Z,83.36
2023-01-25T12:08:03.420Z,83.20
2023-01-25T12:09:45.665Z,83.51
2023-01-25T12:10:53.880Z,83.06
2023-01-25T12:12:01.021Z,83.29
2023-01-25T12:13:05.586Z,83.44
2023-01-25T12:14:22.699Z,83.69
2023-01-25T12:15:59.085Z,83.27
2023-01-25T12:17:08.687Z,83.54
2023-01-25T12:18:27.395Z,83.46
2023-01-25T12:20:03.088Z,83.65
2023-01-25T12:21:35.423Z,82.74
2023-01-25T12:22:51.940Z,82.37
2023-01-25T12:24:26.332Z,82.14
2023-01-25T12:26:18.345Z,82.24
2023-01-25T12:27:34.622Z,82.38
2023-01-25T12:28:47.402Z,82.17
2023-01-25T12:29:58.427Z,82.48
2023-01-25T12:31:02.657Z,82.07
2023-01-25T12:32:07.052Z,82.66
2023-01-25T12:33:14.712Z,82.30
2023-01-25T12:34:23.085Z,81.91
2023-01-25T12:35:32.325Z,82.08
2023-01-25T12:36:37.512Z,81.44
2023-01-25T12:37:40.132Z,81.48
2023-01-25T12:39:00.500Z,81.15
2023-01-25T12:40:05.682Z,81.20
2023-01-25T12:41:38.467Z,81.30
2023-01-25T12:42:46.855Z,81.35
2023-01-25T12:43:51.228Z,81.28
2023-01-25T12:44:56.772Z,80.98
2023-01-25T12:45:58.346Z,80.73
2023-01-25T12:47:06.070Z,80.89
2023-01-25T12:48:19.273Z,81.03
2023-01-25T12:49:27.936Z,81.64
2023-01-25T12:50:40.644Z,81.82
2023-01-25T12:51:42.239Z,81.82
2023-01-25T12:52:51.744Z,81.73
2023-01-25T12:53:53.405Z,81.60
2023-01-25T12:54:56.978Z,81.53
2023-01-25T12:55:58.767Z,81.55
2023-01-25T12:57:19.325Z,80.96
2023-01-25T12:58:37.851Z,80.74
2023-01-25T12:59:48.158Z,81.07
2023-01-25T13:00:58.018Z,80.87
2023-01-25T13:02:34.440Z,81.34
2023-01-25T13:03:56.994Z,81.50
2023-01-25T13:05:37.760Z,81.93
2023-01-25T13:06:44.678Z,81.43
2023-01-25T13:08:31.896Z,81.15
2023-01-25T13:09:51.056Z,80.99
2023-01-25T13:11:13.169Z,80.89
2023-01-25T13:12:15.655Z,81.51
2023-01-25T13:13:25.601Z,81.08
2023-01-25T13:14:37.131Z,81.07
2023-01-25T13:15:43.044Z,81.51
2023-01-25T13:17:01.340Z,81.42
2023-01-25T13:18:28.929Z,80.88
2023-01-25T13:19:30.492Z,80.92
2023-01-25T13:20:40.978Z,80.55
2023-01-25T13:21:45.806Z,80.67
2023-01-25T13:22:47.412Z,80.88
2023-01-25T13:23:50.931Z,81.19
2023-01-25T13:25:04.999Z,81.21
2023-01-25T13:26:21.994Z,81.10
2023-01-25T13:27:25.271Z,80.73
2023-01-25T13:28:45.818Z,80.87
2023-01-25T13:29:47.528Z,80.82
2023-01-25T13:30:52.049Z,80.91
2023-01-25T13:31:57.889Z,81.16
2023-01-25T13:33:06.467Z,81.57
2023-01-25T13:34:11.411Z,81.43
2023-01-25T13:35:40.186Z,81.23
2023-01-25T13:36:41.869Z,81.11
2023-01-25T13:37:43.519Z,80.94
2023-01-25T13:38:45.140Z,80.84
2023-01-25T13:40:07.222Z,80.77
2023-01-25T13:41:14.900Z,80.82
2023-01-25T13:42:16.644Z,81.19
2023-01-25T13:43:19.301Z,81.00
2023-01-25T13:44:26.212Z,80.88
2023-01-25T13:45:27.874Z,80.95
2023-01-25T13:46:29.483Z,80.77
2023-01-25T13:47:38.165Z,80.93
2023-01-25T13:49:01.692Z,80.74
2023-01-25T13:50:10.120Z,81.52
2023-01-25T13:51:14.225Z,81.45
2023-01-25T13:52:17.119Z,81.70
2023-01-25T13:53:21.292Z,82.17
2023-01-25T13:54:22.982Z,81.88
2023-01-25T13:55:24.599Z,81.73
2023-01-25T13:56:28.663Z,81.56
2023-01-25T13:57:31.281Z,81.16
2023-01-25T13:58:43.374Z,80.94
2023-01-25T13:59:44.994Z,81.05
2023-01-25T14:01:06.560Z,81.07
2023-01-25T14:02:22.122Z,81.43